Terminal Aerodrome Forecast
Issued by NWS

Home | Current Version | Previous Version | Text Only | Print | Product List | Glossary On
Versions: 1 2 3 4 5 6 7 8 9 10 11 12 13 14 15 16 17 18
000
FTUS43 KJKL 291138
TAFSME
TAF
KSME 291138Z 2912/3012 00000KT 4SM BR SCT250
     FM292000 29006KT P6SM SCT250
     FM300000 35004KT P6SM BKN250
     FM300900 05003KT 6SM BR VCSH OVC050=

USA.gov is the U.S. government's official web portal to all federal, state and local government web resources and services.